createdAt,value
2022-12-12T00:02:22.109Z,4.88
2022-12-12T00:04:48.559Z,5.82
2022-12-12T00:07:15.442Z,4.97
2022-12-12T00:09:41.803Z,4.72
2022-12-12T00:12:08.369Z,4.22
2022-12-12T00:14:34.822Z,4.60
2022-12-12T00:17:01.241Z,4.32
2022-12-12T00:19:27.604Z,5.00
2022-12-12T00:21:54.040Z,4.43
2022-12-12T00:24:20.472Z,5.35
2022-12-12T00:26:47.785Z,4.47
2022-12-12T00:29:21.844Z,4.45
2022-12-12T00:31:48.199Z,4.30
2022-12-12T00:34:14.548Z,4.45
2022-12-12T00:36:41.170Z,5.32
2022-12-12T00:39:07.567Z,4.57
2022-12-12T00:41:44.421Z,4.47
2022-12-12T00:44:11.225Z,4.00
2022-12-12T00:46:38.549Z,4.75
2022-12-12T00:49:05.323Z,4.70
2022-12-12T00:51:31.725Z,4.18
2022-12-12T00:53:58.999Z,4.50
2022-12-12T00:56:26.343Z,4.32
2022-12-12T00:58:57.355Z,4.18
2022-12-12T01:01:26.854Z,4.40
2022-12-12T01:04:02.346Z,3.97
2022-12-12T01:06:28.988Z,4.47
2022-12-12T01:08:55.349Z,4.45
2022-12-12T01:11:21.778Z,4.85
2022-12-12T01:13:48.831Z,4.57
2022-12-12T01:16:15.209Z,3.65
2022-12-12T01:18:41.916Z,4.03
2022-12-12T01:21:10.322Z,3.88
2022-12-12T01:23:36.946Z,4.10
2022-12-12T01:26:05.108Z,5.22
2022-12-12T01:28:31.707Z,3.90
2022-12-12T01:30:58.176Z,4.00
2022-12-12T01:33:24.612Z,4.15
2022-12-12T01:35:50.993Z,4.25
2022-12-12T01:38:17.356Z,4.45
2022-12-12T01:40:43.762Z,4.03
2022-12-12T01:43:13.912Z,4.47
2022-12-12T01:45:58.584Z,3.55
2022-12-12T01:48:45.472Z,4.53
2022-12-12T01:51:14.811Z,3.90
2022-12-12T01:53:41.360Z,4.43
2022-12-12T01:56:12.342Z,3.90
2022-12-12T01:58:42.625Z,3.40
2022-12-12T02:01:09.951Z,4.18
2022-12-12T02:03:36.588Z,4.05
2022-12-12T02:06:05.682Z,3.83
2022-12-12T02:08:32.186Z,3.63
2022-12-12T02:10:58.738Z,3.65
2022-12-12T02:13:28.733Z,4.15
2022-12-12T02:16:13.487Z,3.95
2022-12-12T02:18:40.042Z,3.40
2022-12-12T02:21:09.476Z,3.63
2022-12-12T02:23:45.203Z,3.55
2022-12-12T02:26:23.815Z,3.80
2022-12-12T02:29:09.140Z,3.72
2022-12-12T02:31:38.606Z,4.22
2022-12-12T02:34:13.229Z,4.25
2022-12-12T02:36:42.643Z,3.17
2022-12-12T02:39:23.081Z,3.63
2022-12-12T02:41:55.912Z,4.05
2022-12-12T02:44:41.397Z,4.22
2022-12-12T02:47:23.253Z,4.15
2022-12-12T02:49:58.732Z,3.90
2022-12-12T02:52:25.321Z,3.63
2022-12-12T02:54:51.758Z,3.60
2022-12-12T02:57:19.940Z,4.47
2022-12-12T02:59:50.542Z,3.30
2022-12-12T03:02:28.433Z,3.75
2022-12-12T03:05:13.873Z,3.78
2022-12-12T03:07:49.267Z,4.80
2022-12-12T03:10:30.937Z,4.90
2022-12-12T03:13:23.430Z,3.60
2022-12-12T03:15:52.870Z,3.50
2022-12-12T03:18:22.247Z,4.07
2022-12-12T03:21:08.866Z,3.17
2022-12-12T03:23:39.531Z,4.72
2022-12-12T03:26:12.291Z,3.95
2022-12-12T03:28:41.218Z,3.30
2022-12-12T03:31:09.586Z,3.45
2022-12-12T03:33:39.700Z,4.75
2022-12-12T03:36:15.850Z,3.60
2022-12-12T03:38:45.017Z,3.40
2022-12-12T03:41:15.157Z,3.60
2022-12-12T03:43:46.805Z,3.65
2022-12-12T03:46:16.201Z,3.63
2022-12-12T03:48:45.142Z,4.43
2022-12-12T03:51:13.843Z,3.25
2022-12-12T03:53:52.377Z,3.65
2022-12-12T03:56:21.733Z,3.53
2022-12-12T03:58:48.081Z,4.15
2022-12-12T04:01:15.972Z,3.10
2022-12-12T04:03:52.302Z,3.22
2022-12-12T04:06:27.487Z,3.63
2022-12-12T04:09:16.684Z,4.15
2022-12-12T04:12:04.857Z,3.60
2022-12-12T04:15:03.591Z,4.28
2022-12-12T04:17:33.074Z,3.35
2022-12-12T04:20:40.982Z,3.42
2022-12-12T04:23:15.756Z,3.85
2022-12-12T04:26:12.692Z,3.10
2022-12-12T04:28:41.661Z,3.28
2022-12-12T04:31:09.266Z,3.40
2022-12-12T04:33:47.810Z,3.33
2022-12-12T04:36:15.275Z,4.13
2022-12-12T04:38:44.057Z,3.88
2022-12-12T04:41:11.726Z,4.22
2022-12-12T04:43:40.136Z,3.47
2022-12-12T04:46:08.379Z,3.60
2022-12-12T04:48:43.813Z,4.65
2022-12-12T04:51:13.598Z,3.80
2022-12-12T04:53:42.344Z,3.72
2022-12-12T04:56:10.352Z,3.85
2022-12-12T04:58:37.423Z,3.65
2022-12-12T05:01:07.437Z,3.72
2022-12-12T05:03:39.683Z,3.80
2022-12-12T05:06:08.018Z,3.20
2022-12-12T05:08:36.257Z,3.85
2022-12-12T05:11:03.447Z,4.30
2022-12-12T05:13:37.462Z,3.45
2022-12-12T05:16:24.148Z,4.13
2022-12-12T05:18:50.565Z,3.30
2022-12-12T05:21:17.733Z,4.45
2022-12-12T05:23:44.860Z,3.97
2022-12-12T05:26:30.541Z,3.35
2022-12-12T05:28:59.967Z,4.22
2022-12-12T05:31:30.389Z,3.17
2022-12-12T05:33:56.832Z,4.18
2022-12-12T05:36:23.274Z,3.50
2022-12-12T05:38:49.757Z,3.38
2022-12-12T05:41:16.198Z,3.13
2022-12-12T05:43:42.590Z,3.28
2022-12-12T05:46:09.414Z,3.88
2022-12-12T05:48:35.796Z,3.22
2022-12-12T05:51:02.876Z,3.80
2022-12-12T05:53:29.661Z,3.65
2022-12-12T05:55:56.123Z,4.03
2022-12-12T05:58:23.237Z,3.10
2022-12-12T06:00:50.526Z,3.45
2022-12-12T06:03:17.339Z,3.70
2022-12-12T06:05:43.941Z,3.90
2022-12-12T06:08:10.342Z,3.92
2022-12-12T06:10:36.904Z,3.20
2022-12-12T06:13:03.867Z,3.17
2022-12-12T06:15:30.368Z,3.50
2022-12-12T06:17:58.486Z,2.97
2022-12-12T06:20:24.948Z,3.67
2022-12-12T06:22:53.825Z,3.75
2022-12-12T06:25:20.854Z,3.58
2022-12-12T06:27:47.320Z,2.92
2022-12-12T06:30:13.884Z,3.88
2022-12-12T06:32:40.214Z,2.78
2022-12-12T06:35:06.705Z,3.05
2022-12-12T06:37:33.248Z,3.10
2022-12-12T06:39:59.646Z,2.92
2022-12-12T06:42:26.338Z,3.53
2022-12-12T06:44:52.830Z,3.00
2022-12-12T06:47:19.167Z,3.50
2022-12-12T06:49:45.613Z,3.53
2022-12-12T06:52:12.495Z,3.00
2022-12-12T06:54:38.876Z,4.13
2022-12-12T06:57:05.315Z,2.85
2022-12-12T06:59:31.765Z,3.47
2022-12-12T07:01:58.654Z,3.25
2022-12-12T07:04:25.906Z,2.95
2022-12-12T07:06:52.801Z,2.92
2022-12-12T07:09:20.493Z,3.15
2022-12-12T07:11:46.864Z,3.83
2022-12-12T07:14:13.215Z,3.15
2022-12-12T07:16:39.558Z,3.53
2022-12-12T07:19:06.006Z,3.10
2022-12-12T07:21:32.389Z,3.20
2022-12-12T07:23:59.009Z,2.90
2022-12-12T07:26:25.743Z,3.70
2022-12-12T07:28:52.366Z,3.20
2022-12-12T07:31:20.161Z,3.05
2022-12-12T07:33:46.726Z,4.07
2022-12-12T07:36:13.951Z,2.88
2022-12-12T07:38:46.127Z,2.97
2022-12-12T07:41:14.278Z,3.28
2022-12-12T07:43:44.232Z,3.10
2022-12-12T07:46:13.176Z,3.20
2022-12-12T07:48:39.659Z,3.00
2022-12-12T07:51:06.258Z,3.42
2022-12-12T07:53:32.839Z,3.75
2022-12-12T07:55:59.846Z,3.25
2022-12-12T07:58:29.304Z,3.03
2022-12-12T08:00:55.738Z,3.10
2022-12-12T08:03:22.099Z,2.22
2022-12-12T08:05:48.516Z,2.85
2022-12-12T08:08:15.066Z,3.20
2022-12-12T08:10:41.806Z,3.28
2022-12-12T08:13:10.580Z,3.20
2022-12-12T08:15:49.391Z,3.72
2022-12-12T08:18:15.751Z,2.88
2022-12-12T08:20:42.102Z,3.17
2022-12-12T08:23:08.887Z,2.85
2022-12-12T08:25:35.851Z,3.35
2022-12-12T08:28:02.246Z,3.40
2022-12-12T08:30:28.630Z,2.83
2022-12-12T08:32:55.075Z,3.58
2022-12-12T08:35:21.577Z,3.47
2022-12-12T08:37:50.835Z,3.65
2022-12-12T08:40:19.960Z,3.55
2022-12-12T08:42:46.285Z,3.55
2022-12-12T08:45:13.621Z,3.50
2022-12-12T08:47:40.208Z,3.13
2022-12-12T08:50:09.834Z,3.08
2022-12-12T08:52:39.090Z,2.97
2022-12-12T08:55:05.518Z,3.25
2022-12-12T08:57:31.945Z,3.50
2022-12-12T08:59:58.344Z,3.53
2022-12-12T09:02:24.869Z,3.42
2022-12-12T09:04:51.270Z,3.13
2022-12-12T09:07:17.615Z,3.40
2022-12-12T09:09:46.957Z,4.45
2022-12-12T09:12:13.341Z,3.30
2022-12-12T09:14:42.779Z,2.83
2022-12-12T09:17:09.143Z,2.92
2022-12-12T09:19:35.523Z,4.03
2022-12-12T09:22:02.856Z,3.40
2022-12-12T09:24:29.201Z,3.53
2022-12-12T09:26:58.413Z,2.65
2022-12-12T09:29:24.776Z,3.53
2022-12-12T09:31:51.210Z,3.65
2022-12-12T09:34:21.797Z,2.85
2022-12-12T09:36:48.253Z,2.90
2022-12-12T09:39:14.699Z,2.63
2022-12-12T09:41:41.223Z,3.13
2022-12-12T09:44:12.709Z,3.85
2022-12-12T09:46:51.167Z,17.13
2022-12-12T09:49:41.666Z,10.85
2022-12-12T09:52:17.728Z,11.85
2022-12-12T09:54:44.581Z,12.40
2022-12-12T09:57:27.203Z,11.80
2022-12-12T10:02:33.865Z,9.38
2022-12-12T10:05:01.585Z,7.43
2022-12-12T10:07:37.160Z,9.00
2022-12-12T10:10:21.952Z,7.75
2022-12-12T10:12:48.709Z,8.02
2022-12-12T10:15:25.070Z,8.45
2022-12-12T10:17:51.733Z,7.97
2022-12-12T10:20:23.126Z,8.00
2022-12-12T10:23:12.610Z,7.03
2022-12-12T10:25:59.227Z,6.18
2022-12-12T10:28:27.103Z,7.00
2022-12-12T10:30:59.673Z,6.75
2022-12-12T10:33:28.989Z,7.68
2022-12-12T10:36:02.506Z,6.25
2022-12-12T10:38:31.885Z,6.55
2022-12-12T10:41:15.212Z,6.40
2022-12-12T10:44:03.803Z,6.20
2022-12-12T10:46:58.202Z,5.72
2022-12-12T10:49:24.789Z,7.28
2022-12-12T10:51:59.522Z,6.30
2022-12-12T10:54:30.978Z,5.22
2022-12-12T10:57:25.378Z,5.90
2022-12-12T10:59:59.357Z,4.85
2022-12-12T11:02:40.075Z,4.68
2022-12-12T11:05:16.459Z,4.60
2022-12-12T11:07:48.095Z,4.60
2022-12-12T11:10:39.706Z,4.50
2022-12-12T11:13:09.204Z,4.60
2022-12-12T11:16:13.464Z,4.25
2022-12-12T11:18:40.203Z,4.43
2022-12-12T11:21:10.642Z,4.55
2022-12-12T11:23:39.428Z,4.57
2022-12-12T11:26:11.613Z,4.30
2022-12-12T11:28:38.568Z,4.22
2022-12-12T11:31:07.483Z,4.18
2022-12-12T11:33:48.265Z,4.35
2022-12-12T11:36:19.049Z,4.85
2022-12-12T11:38:56.041Z,4.57
2022-12-12T11:41:24.975Z,4.85
2022-12-12T11:44:07.060Z,4.35
2022-12-12T11:46:36.242Z,4.10
2022-12-12T11:49:08.452Z,4.32
2022-12-12T11:51:36.846Z,4.00
2022-12-12T11:54:14.124Z,4.13
2022-12-12T11:56:45.272Z,4.15
2022-12-12T11:59:27.341Z,4.72
2022-12-12T12:02:08.143Z,4.20
2022-12-12T12:04:54.845Z,3.95
2022-12-12T12:07:32.027Z,3.67
2022-12-12T12:10:07.421Z,3.60
2022-12-12T12:12:57.302Z,3.42
2022-12-12T12:15:29.647Z,3.85
2022-12-12T12:18:28.340Z,4.43
2022-12-12T12:20:57.955Z,3.83
2022-12-12T12:23:51.095Z,3.20
2022-12-12T12:26:36.368Z,3.35
2022-12-12T12:29:07.421Z,3.40
2022-12-12T12:31:52.368Z,3.90
2022-12-12T12:34:23.442Z,3.92
2022-12-12T12:37:08.873Z,4.07
2022-12-12T12:39:47.698Z,3.10
2022-12-12T12:42:32.877Z,3.13
2022-12-12T12:45:17.596Z,3.85
2022-12-12T12:47:59.044Z,3.15
2022-12-12T12:50:31.433Z,3.00
2022-12-12T12:55:27.311Z,3.45
2022-12-12T12:57:54.148Z,3.75
2022-12-12T13:00:22.320Z,2.85
2022-12-12T13:03:07.783Z,2.47
2022-12-12T13:05:36.924Z,3.20
2022-12-12T13:08:22.538Z,2.72
2022-12-12T13:10:54.395Z,2.60
2022-12-12T13:13:28.161Z,3.05
2022-12-12T13:15:58.443Z,2.92
2022-12-12T13:18:25.869Z,2.53
2022-12-12T13:20:58.203Z,2.17
2022-12-12T13:23:47.255Z,2.17
2022-12-12T13:26:13.633Z,2.47
2022-12-12T13:28:43.064Z,2.30
2022-12-12T13:31:24.904Z,2.40
2022-12-12T13:33:51.268Z,2.53
2022-12-12T13:36:26.006Z,2.42
2022-12-12T13:39:07.735Z,2.25
2022-12-12T13:42:06.791Z,2.50
2022-12-12T13:44:41.908Z,2.72
2022-12-12T13:47:12.998Z,1.98
2022-12-12T13:49:45.498Z,2.08
2022-12-12T13:52:22.913Z,2.08
2022-12-12T13:54:50.303Z,2.22
2022-12-12T13:57:32.359Z,1.90
2022-12-12T13:59:58.967Z,2.40
2022-12-12T14:02:30.799Z,2.05
2022-12-12T14:05:16.896Z,2.00
2022-12-12T14:07:50.561Z,2.35
2022-12-12T14:10:37.278Z,1.90
2022-12-12T14:13:16.043Z,1.88
2022-12-12T14:15:43.769Z,1.90
2022-12-12T14:18:18.095Z,2.38
2022-12-12T14:20:51.609Z,2.53
2022-12-12T14:23:20.892Z,1.77
2022-12-12T14:25:47.289Z,2.58
2022-12-12T14:28:34.413Z,1.77
2022-12-12T14:31:05.354Z,2.20
2022-12-12T14:33:34.938Z,1.92
2022-12-12T14:36:07.532Z,1.92
2022-12-12T14:38:33.884Z,1.83
2022-12-12T14:41:01.910Z,1.50
2022-12-12T14:43:30.521Z,1.77
2022-12-12T14:45:58.014Z,1.65
2022-12-12T14:48:27.622Z,1.50
2022-12-12T14:51:12.769Z,1.95
2022-12-12T14:53:39.347Z,1.98
2022-12-12T14:56:08.905Z,2.00
2022-12-12T14:58:37.663Z,1.70
2022-12-12T15:01:05.025Z,1.75
2022-12-12T15:03:45.468Z,1.48
2022-12-12T15:06:24.004Z,1.60
2022-12-12T15:08:51.301Z,1.85
2022-12-12T15:11:20.400Z,1.58
2022-12-12T15:13:50.799Z,1.92
2022-12-12T15:16:17.986Z,2.38
2022-12-12T15:18:50.733Z,1.90
2022-12-12T15:21:23.471Z,1.77
2022-12-12T15:23:50.267Z,1.55
2022-12-12T15:26:19.053Z,2.53
2022-12-12T15:28:48.974Z,1.98
2022-12-12T15:31:19.449Z,1.60
2022-12-12T15:33:47.051Z,2.35
2022-12-12T15:36:28.889Z,2.08
2022-12-12T15:39:15.702Z,1.92
2022-12-12T15:41:43.337Z,2.67
2022-12-12T15:44:16.808Z,2.25
2022-12-12T15:46:43.515Z,1.67
2022-12-12T15:49:28.800Z,1.98
2022-12-12T15:51:55.407Z,2.03
2022-12-12T15:54:22.303Z,2.20
2022-12-12T15:56:52.116Z,1.77
2022-12-12T15:59:25.587Z,1.80
2022-12-12T16:01:54.862Z,2.78
2022-12-12T16:04:23.403Z,2.58
2022-12-12T16:06:49.989Z,1.55
2022-12-12T16:09:24.269Z,1.80
2022-12-12T16:11:57.631Z,2.20
2022-12-12T16:14:32.597Z,1.90
2022-12-12T16:17:12.596Z,1.73
2022-12-12T16:19:43.415Z,1.63
2022-12-12T16:22:20.640Z,2.10
2022-12-12T16:24:51.620Z,1.95
2022-12-12T16:27:40.062Z,1.63
2022-12-12T16:30:14.730Z,2.05
2022-12-12T16:32:45.304Z,2.05
2022-12-12T16:35:21.604Z,2.50
2022-12-12T16:37:59.411Z,2.33
2022-12-12T16:40:25.756Z,1.85
2022-12-12T16:43:01.837Z,2.33
2022-12-12T16:45:31.339Z,1.92
2022-12-12T16:48:01.018Z,2.10
2022-12-12T16:50:28.583Z,2.17
2022-12-12T16:52:55.221Z,2.10
2022-12-12T16:55:23.262Z,1.70
2022-12-12T16:57:49.701Z,2.47
2022-12-12T17:00:17.019Z,2.65
2022-12-12T17:02:45.669Z,2.30
2022-12-12T17:05:19.953Z,1.95
2022-12-12T17:07:47.618Z,2.22
2022-12-12T17:10:14.418Z,1.60
2022-12-12T17:12:41.336Z,2.22
2022-12-12T17:15:12.946Z,2.40
2022-12-12T17:17:39.263Z,2.13
2022-12-12T17:20:06.115Z,1.90
2022-12-12T17:22:32.533Z,2.78
2022-12-12T17:24:59.063Z,1.50
2022-12-12T17:27:25.464Z,2.20
2022-12-12T17:29:52.037Z,1.77
2022-12-12T17:32:22.909Z,2.42
2022-12-12T17:37:17.159Z,2.30
2022-12-12T17:39:43.485Z,2.13
2022-12-12T17:42:09.903Z,1.90
2022-12-12T17:44:36.589Z,1.77
2022-12-12T17:47:03.126Z,2.30
2022-12-12T17:49:29.482Z,1.92
2022-12-12T17:51:55.889Z,1.85
2022-12-12T17:54:22.263Z,1.52
2022-12-12T17:56:48.622Z,2.47
2022-12-12T17:59:15.033Z,2.30
2022-12-12T18:01:41.405Z,2.05
2022-12-12T18:04:09.004Z,2.63
2022-12-12T18:06:36.041Z,2.83
2022-12-12T18:09:03.076Z,2.03
2022-12-12T18:11:31.627Z,2.05
2022-12-12T18:14:00.403Z,2.15
2022-12-12T18:16:28.845Z,2.00
2022-12-12T18:18:55.741Z,1.90
2022-12-12T18:21:51.859Z,2.58
2022-12-12T18:24:10.441Z,2.30
2022-12-12T18:26:36.966Z,2.20
2022-12-12T18:29:04.441Z,2.15
2022-12-12T18:31:31.502Z,2.60
2022-12-12T18:33:58.069Z,2.17
2022-12-12T18:36:26.863Z,2.63
2022-12-12T18:38:54.640Z,2.63
2022-12-12T18:41:21.115Z,2.65
2022-12-12T18:43:47.458Z,2.30
2022-12-12T18:46:14.988Z,2.67
2022-12-12T18:48:42.325Z,2.15
2022-12-12T18:51:09.840Z,3.00
2022-12-12T18:53:36.761Z,3.92
2022-12-12T18:56:06.962Z,2.53
2022-12-12T18:58:34.020Z,2.60
2022-12-12T19:01:07.721Z,3.00
2022-12-12T19:03:35.050Z,3.55
2022-12-12T19:06:21.737Z,2.72
2022-12-12T19:08:48.748Z,2.38
2022-12-12T19:11:15.221Z,2.42
2022-12-12T19:13:43.009Z,3.05
2022-12-12T19:16:14.425Z,2.50
2022-12-12T19:18:41.617Z,1.97
2022-12-12T19:21:09.269Z,3.40
2022-12-12T19:23:36.433Z,2.67
2022-12-12T19:26:10.349Z,2.67
2022-12-12T19:28:36.782Z,3.10
2022-12-12T19:31:08.216Z,2.50
2022-12-12T19:33:35.088Z,2.95
2022-12-12T19:36:07.592Z,3.28
2022-12-12T19:38:33.950Z,3.35
2022-12-12T19:41:07.404Z,2.80
2022-12-12T19:43:33.841Z,2.97
2022-12-12T19:46:21.491Z,3.65
2022-12-12T19:48:51.475Z,2.67
2022-12-12T19:51:23.051Z,2.42
2022-12-12T19:53:56.702Z,2.20
2022-12-12T19:56:24.673Z,2.92
2022-12-12T19:58:51.375Z,2.95
2022-12-12T20:01:19.580Z,2.72
2022-12-12T20:03:49.745Z,2.42
2022-12-12T20:06:16.619Z,2.45
2022-12-12T20:08:43.158Z,2.72
2022-12-12T20:11:10.671Z,3.08
2022-12-12T20:13:37.609Z,2.17
2022-12-12T20:16:14.436Z,2.22
2022-12-12T20:18:41.615Z,2.53
2022-12-12T20:21:08.885Z,2.17
2022-12-12T20:23:36.533Z,2.50
2022-12-12T20:26:04.407Z,2.15
2022-12-12T20:28:31.047Z,2.20
2022-12-12T20:31:05.822Z,2.55
2022-12-12T20:33:32.370Z,2.13
2022-12-12T20:36:02.609Z,2.55
2022-12-12T20:38:30.013Z,1.98
2022-12-12T20:40:56.410Z,1.77
2022-12-12T20:43:22.901Z,2.33
2022-12-12T20:45:49.390Z,2.15
2022-12-12T20:48:16.243Z,2.13
2022-12-12T20:50:42.668Z,1.83
2022-12-12T20:53:09.087Z,2.00
2022-12-12T20:55:36.338Z,2.05
2022-12-12T20:58:02.958Z,2.15
2022-12-12T21:00:30.167Z,2.15
2022-12-12T21:02:57.050Z,2.33
2022-12-12T21:05:24.022Z,2.00
2022-12-12T21:07:50.482Z,1.88
2022-12-12T21:10:16.945Z,2.17
2022-12-12T21:12:43.298Z,2.05
2022-12-12T21:15:09.829Z,2.15
2022-12-12T21:17:36.159Z,1.98
2022-12-12T21:20:06.566Z,2.05
2022-12-12T21:22:33.297Z,1.98
2022-12-12T21:24:59.735Z,1.85
2022-12-12T21:27:26.266Z,2.00
2022-12-12T21:29:52.723Z,2.05
2022-12-12T21:32:19.083Z,2.35
2022-12-12T21:34:45.488Z,2.08
2022-12-12T21:37:11.943Z,2.10
2022-12-12T21:39:38.484Z,2.33
2022-12-12T21:42:04.965Z,2.30
2022-12-12T21:44:31.480Z,2.20
2022-12-12T21:46:58.018Z,1.90
2022-12-12T21:49:27.693Z,2.38
2022-12-12T21:51:55.299Z,2.00
2022-12-12T21:54:21.898Z,2.78
2022-12-12T21:56:48.597Z,2.30
2022-12-12T21:59:15.091Z,1.77
2022-12-12T22:01:41.932Z,1.98
2022-12-12T22:04:08.936Z,2.10
2022-12-12T22:06:35.892Z,1.73
2022-12-12T22:09:04.134Z,1.98
2022-12-12T22:11:40.852Z,1.85
2022-12-12T22:14:13.858Z,1.95
2022-12-12T22:16:40.297Z,1.98
2022-12-12T22:19:08.029Z,1.85
2022-12-12T22:21:34.793Z,1.67
2022-12-12T22:24:01.346Z,1.75
2022-12-12T22:26:27.856Z,2.00
2022-12-12T22:28:55.715Z,1.90
2022-12-12T22:31:23.270Z,2.50
2022-12-12T22:33:53.313Z,2.05
2022-12-12T22:36:21.401Z,2.15
2022-12-12T22:38:47.769Z,2.10
2022-12-12T22:41:14.274Z,1.83
2022-12-12T22:43:40.696Z,2.20
2022-12-12T22:46:07.387Z,2.53
2022-12-12T22:48:34.399Z,1.63
2022-12-12T22:51:10.485Z,1.90
2022-12-12T22:53:42.422Z,2.03
2022-12-12T22:56:10.515Z,1.70
2022-12-12T22:58:36.940Z,1.80
2022-12-12T23:01:07.596Z,1.95
2022-12-12T23:03:33.981Z,1.77
2022-12-12T23:06:07.280Z,1.77
2022-12-12T23:08:34.128Z,1.58
2022-12-12T23:11:11.225Z,1.90
2022-12-12T23:13:37.734Z,1.85
2022-12-12T23:16:05.023Z,2.08
2022-12-12T23:18:34.227Z,1.88
2022-12-12T23:21:01.857Z,1.77
2022-12-12T23:23:50.285Z,1.70
2022-12-12T23:26:19.710Z,1.98
2022-12-12T23:28:46.696Z,1.70
2022-12-12T23:31:22.044Z,1.70
2022-12-12T23:33:51.756Z,1.52
2022-12-12T23:36:21.341Z,1.90
2022-12-12T23:38:50.334Z,1.70
2022-12-12T23:41:16.713Z,1.75
2022-12-12T23:43:43.217Z,1.80
2022-12-12T23:46:28.343Z,1.95
2022-12-12T23:49:02.314Z,1.92
2022-12-12T23:51:29.905Z,1.90
2022-12-12T23:54:03.999Z,1.92
2022-12-12T23:56:30.447Z,1.77
2022-12-12T23:58:57.951Z,1.67
